עמוד ראשי
METAR-TAF:

METAR-TAF

שדות תעופה :

Colorado City, אריזונה, ארצות הברית

קו רוחב: 36-57-36N, קו אורך: 113-00-50W, גובה: 1486מטר

תצפית מזג אוויר נוכחית

הדו"ח נערך לפני 27דקות, בשעה 13:15 UTC
רוח 3קשר מכיוון דרום/דרום-מערב
טמפרטורת 25 צלסיוס
לחות 57%
לחץ 1026 hPa
ראות: 16.1קילומטר
שמיים נקיים

METAR: KAZC 251315Z AUTO 21003KT 10SM CLR 25/16 A3031 RMK AO2

זמן: 06:42 (13:42 UTC)


TAF: חסר

תצפיות ותחזיות מזג אוויר לגבי יותר מ- 4,000 שדות תעופה ברחבי העולם. דוחות METAR ו- TAF.

התחנות הזמינות מסומנות בנקודות צהובות ואדומות על גבי המפה.

העבר את העכבר לנקודה הצבעונית על מנת לראות את שם התחנה.

לאחר מכן, לחץ כדי לראות את תוכן ואת תחזיות מזג האוויר.

כדי לשנות את המפה: לחץ על הכפתורים הירוקים עם הפלוס השחור כדי להתקרב; על הכפתור הירוק עם המקף כדי להתרחק; או בחיצים הירוקים למפות סמוכות.


METAR-TAF: